Time;durP1;ratioP1;P1;durP2;ratioP2;P2;SDS_P1;SDS_P2;PMS_P1;PMS_P2;Temp;Humidity;BMP_temperature;BMP_pressure;BME280_temperature;BME280_humidity;BME280_pressure;Samples;Min_cycle;Max_cycle;Signal;HPM_P1;HPM_P2
2022/11/18 00:01:17;;;;;;;8.60;2.33;;;8.50;99.90;;;;;;5073359;28;20468;-62
2022/11/18 00:03:44;;;;;;;3.85;1.73;;;8.50;99.90;;;;;;5090039;28;20073;-62
2022/11/18 00:06:12;;;;;;;10.70;2.55;;;8.50;99.90;;;;;;5091632;28;20030;-62
2022/11/18 00:08:37;;;;;;;6.47;2.25;;;8.40;99.90;;;;;;5092135;28;20070;-62
2022/11/18 00:11:05;;;;;;;6.93;2.15;;;8.40;99.90;;;;;;5089074;28;20028;-62
2022/11/18 00:16:15;;;;;;;4.80;2.47;;;8.40;99.90;;;;;;5089647;28;20089;-62
2022/11/18 00:18:40;;;;;;;8.10;2.15;;;8.40;99.90;;;;;;5089265;28;20032;-62
2022/11/18 00:21:09;;;;;;;7.88;2.03;;;8.40;99.90;;;;;;5089151;28;20063;-62
2022/11/18 00:23:35;;;;;;;7.60;1.90;;;8.40;99.90;;;;;;5073352;28;20081;-62
2022/11/18 00:26:06;;;;;;;6.07;2.45;;;8.40;99.90;;;;;;5089233;28;20020;-62
2022/11/18 00:28:32;;;;;;;9.30;2.17;;;8.40;99.90;;;;;;5089241;28;20012;-62
2022/11/18 00:31:06;;;;;;;4.82;2.10;;;8.40;99.90;;;;;;5088978;28;20051;-61
2022/11/18 00:33:32;;;;;;;7.80;2.92;;;8.40;99.90;;;;;;5090015;28;20047;-62
2022/11/18 00:35:58;;;;;;;5.45;2.50;;;8.30;99.90;;;;;;5093257;28;20485;-62
2022/11/18 00:38:25;;;;;;;6.53;2.30;;;8.40;99.90;;;;;;5070491;28;20457;-62
2022/11/18 00:41:01;;;;;;;5.57;1.98;;;8.40;99.90;;;;;;5070703;28;20024;-62
2022/11/18 00:43:28;;;;;;;6.57;2.15;;;8.40;99.90;;;;;;5088468;28;20572;-62
2022/11/18 00:45:53;;;;;;;5.88;1.88;;;8.30;99.90;;;;;;5092950;28;20099;-62
2022/11/18 00:48:20;;;;;;;6.22;2.60;;;8.30;99.90;;;;;;5104397;27;20091;-62
2022/11/18 00:50:50;;;;;;;7.93;2.17;;;8.40;99.90;;;;;;5088757;28;20096;-62
2022/11/18 00:53:17;;;;;;;7.55;2.67;;;8.40;99.90;;;;;;5088629;28;20028;-62
2022/11/18 00:55:43;;;;;;;6.43;2.33;;;8.40;99.90;;;;;;5088847;28;20097;-62
2022/11/18 00:58:09;;;;;;;7.13;2.00;;;8.50;99.90;;;;;;5088309;28;20024;-62
2022/11/18 01:00:34;;;;;;;4.30;2.30;;;8.50;99.90;;;;;;5088573;28;20148;-62
2022/11/18 01:03:01;;;;;;;5.03;2.05;;;8.50;99.90;;;;;;5089456;28;20028;-62
2022/11/18 01:05:26;;;;;;;6.68;2.40;;;8.50;99.90;;;;;;5088616;28;20031;-62
2022/11/18 01:07:52;;;;;;;6.97;2.13;;;8.50;99.90;;;;;;5088630;28;20032;-62
2022/11/18 01:10:18;;;;;;;5.57;2.53;;;8.50;99.90;;;;;;5088933;28;20016;-62
2022/11/18 01:15:27;;;;;;;7.63;2.70;;;8.40;99.90;;;;;;5092328;28;20094;-62
2022/11/18 01:17:53;;;;;;;8.68;2.28;;;8.40;99.90;;;;;;5095041;28;20032;-62
2022/11/18 01:20:18;;;;;;;5.28;2.40;;;8.40;99.90;;;;;;5092396;28;20078;-62
2022/11/18 01:22:44;;;;;;;7.32;2.50;;;8.40;99.90;;;;;;5092181;28;20499;-62
2022/11/18 01:25:09;;;;;;;7.85;2.80;;;8.40;99.90;;;;;;5078960;28;20027;-62
2022/11/18 01:27:35;;;;;;;6.65;2.15;;;8.40;99.90;;;;;;5094682;27;20093;-61
2022/11/18 01:30:00;;;;;;;7.72;2.22;;;8.40;99.90;;;;;;5109511;27;20036;-61
2022/11/18 01:32:27;;;;;;;4.65;2.10;;;8.40;99.90;;;;;;5099800;27;20058;-61
2022/11/18 01:34:53;;;;;;;8.70;2.88;;;8.50;99.90;;;;;;5120028;27;20396;-62
2022/11/18 01:37:18;;;;;;;5.45;2.28;;;8.50;99.90;;;;;;5100946;27;20485;-61
2022/11/18 01:39:44;;;;;;;4.55;1.90;;;8.50;99.90;;;;;;5092126;28;20481;-62
2022/11/18 01:42:14;;;;;;;5.75;2.25;;;8.50;99.90;;;;;;5095517;28;20038;-61
2022/11/18 01:44:55;;;;;;;5.03;2.17;;;8.50;99.90;;;;;;5096562;28;20015;-62
2022/11/18 01:47:21;;;;;;;6.45;2.10;;;8.50;99.90;;;;;;5094590;28;20094;-62
2022/11/18 01:49:47;;;;;;;6.20;2.13;;;8.50;99.90;;;;;;5092866;28;20417;-61
2022/11/18 01:52:14;;;;;;;7.47;2.75;;;8.60;99.90;;;;;;5091844;28;20020;-62
2022/11/18 01:54:45;;;;;;;9.07;2.28;;;8.60;99.90;;;;;;5079316;28;20031;-62
2022/11/18 01:57:16;;;;;;;5.60;2.60;;;8.60;99.90;;;;;;5092090;28;20149;-62
2022/11/18 01:59:44;;;;;;;7.20;2.40;;;8.70;99.90;;;;;;5096035;28;20028;-61
2022/11/18 02:02:12;;;;;;;8.45;2.28;;;8.70;99.90;;;;;;5081290;28;20016;-64
2022/11/18 02:04:40;;;;;;;5.38;2.05;;;8.70;99.90;;;;;;5095328;28;20047;-62
2022/11/18 02:07:08;;;;;;;9.65;3.30;;;8.70;99.90;;;;;;5091645;28;20024;-62
2022/11/18 02:09:35;;;;;;;7.25;2.22;;;8.70;99.90;;;;;;5091384;28;20107;-62
2022/11/18 02:12:00;;;;;;;7.43;2.50;;;8.70;99.90;;;;;;5091800;28;20504;-62
2022/11/18 02:14:30;;;;;;;5.55;2.45;;;8.70;99.90;;;;;;5091291;28;20023;-62
2022/11/18 02:17:31;;;;;;;5.43;2.50;;;8.70;99.90;;;;;;5094211;28;20023;-62
2022/11/18 02:20:27;;;;;;;6.18;2.10;;;8.80;99.90;;;;;;5091439;28;20130;-62
2022/11/18 02:23:19;;;;;;;5.55;1.92;;;8.80;99.90;;;;;;5090187;28;20477;-62
2022/11/18 02:26:06;;;;;;;4.40;2.42;;;8.80;99.90;;;;;;5090903;28;20043;-62
2022/11/18 02:28:53;;;;;;;6.78;2.47;;;8.80;99.90;;;;;;5096126;28;20026;-62
2022/11/18 02:31:30;;;;;;;9.20;2.25;;;8.80;99.90;;;;;;5094040;28;20533;-62
2022/11/18 02:34:23;;;;;;;6.53;2.00;;;8.80;99.90;;;;;;5072771;28;20039;-62
2022/11/18 02:36:56;;;;;;;6.85;2.50;;;8.80;99.90;;;;;;5094196;28;20032;-62
2022/11/18 02:39:36;;;;;;;6.57;2.47;;;8.80;99.90;;;;;;5092521;28;20023;-61
2022/11/18 02:42:06;;;;;;;6.97;3.13;;;8.80;99.90;;;;;;5096841;28;20031;-61
2022/11/18 02:44:33;;;;;;;5.57;2.78;;;8.80;99.90;;;;;;5090556;28;20028;-62
2022/11/18 02:47:04;;;;;;;6.07;2.20;;;8.90;99.90;;;;;;5094065;28;20023;-64
2022/11/18 02:49:40;;;;;;;4.45;1.90;;;8.90;99.90;;;;;;5090567;28;20024;-62
2022/11/18 02:52:09;;;;;;;4.90;2.35;;;8.90;99.90;;;;;;5091534;28;20038;-62
2022/11/18 02:54:37;;;;;;;6.03;2.08;;;8.90;99.90;;;;;;5072197;28;20081;-62
2022/11/18 02:57:04;;;;;;;9.48;2.38;;;9.00;99.90;;;;;;5072369;28;20055;-62
2022/11/18 02:59:30;;;;;;;8.90;3.55;;;8.90;99.90;;;;;;5090247;28;20027;-62
2022/11/18 03:01:56;;;;;;;7.93;2.05;;;9.00;99.90;;;;;;5094398;28;20370;-61
2022/11/18 03:04:22;;;;;;;6.90;2.40;;;9.00;99.90;;;;;;5093660;28;20385;-62
2022/11/18 03:07:12;;;;;;;5.47;2.25;;;9.00;99.90;;;;;;5093115;28;20036;-61
2022/11/18 03:09:41;;;;;;;6.95;2.38;;;9.00;99.90;;;;;;5080758;27;20378;-62
2022/11/18 03:12:29;;;;;;;5.83;2.10;;;9.00;99.90;;;;;;5105820;27;20102;-61
2022/11/18 03:15:27;;;;;;;5.18;2.08;;;9.00;99.90;;;;;;5090253;28;20023;-62
2022/11/18 03:18:20;;;;;;;6.53;2.70;;;9.00;99.90;;;;;;5092905;28;20027;-62
2022/11/18 03:20:59;;;;;;;7.63;2.50;;;9.00;99.90;;;;;;5090649;28;20024;-62
2022/11/18 03:23:35;;;;;;;4.57;2.10;;;9.00;99.90;;;;;;5114552;27;20035;-62
2022/11/18 03:26:12;;;;;;;5.10;2.08;;;9.00;99.90;;;;;;5113640;27;20024;-62
2022/11/18 03:28:54;;;;;;;7.38;1.88;;;9.00;99.90;;;;;;5090135;28;20023;-62
2022/11/18 03:31:43;;;;;;;7.75;2.67;;;9.00;99.90;;;;;;5091001;28;20570;-62
2022/11/18 03:34:15;;;;;;;5.68;2.80;;;9.00;99.90;;;;;;5089754;28;20477;-62
2022/11/18 03:36:45;;;;;;;5.28;2.10;;;8.90;99.90;;;;;;5091544;28;20020;-62
2022/11/18 03:39:13;;;;;;;6.05;2.63;;;8.90;99.90;;;;;;5073269;28;20103;-62
2022/11/18 03:41:44;;;;;;;7.35;2.40;;;8.90;99.90;;;;;;5091365;28;20038;-62
2022/11/18 03:44:15;;;;;;;7.18;3.00;;;9.00;99.90;;;;;;5090071;28;20023;-62
2022/11/18 03:47:03;;;;;;;6.72;2.58;;;8.90;99.90;;;;;;5094212;28;20035;-61
2022/11/18 03:49:36;;;;;;;8.05;2.17;;;8.90;99.90;;;;;;5089464;27;20031;-62
2022/11/18 03:52:09;;;;;;;4.57;2.00;;;8.90;99.90;;;;;;5092701;28;20020;-62
2022/11/18 03:54:37;;;;;;;4.15;2.15;;;9.00;99.90;;;;;;5089301;28;20077;-62
2022/11/18 03:57:17;;;;;;;6.75;2.03;;;8.90;99.90;;;;;;5089578;27;20411;-62
2022/11/18 03:59:48;;;;;;;7.40;2.53;;;9.00;99.90;;;;;;5089619;28;20020;-62
2022/11/18 04:02:20;;;;;;;6.65;2.33;;;9.00;99.90;;;;;;5089194;28;20123;-62
2022/11/18 04:04:48;;;;;;;6.50;2.72;;;9.00;99.90;;;;;;5092916;28;20016;-62
2022/11/18 04:07:24;;;;;;;7.68;2.35;;;9.00;99.90;;;;;;5092125;28;20085;-62
2022/11/18 04:10:12;;;;;;;5.68;2.30;;;9.00;99.90;;;;;;5089383;28;20098;-61
2022/11/18 04:12:43;;;;;;;7.88;2.38;;;9.00;99.90;;;;;;5089315;28;20028;-61
2022/11/18 04:15:09;;;;;;;6.15;2.45;;;9.00;99.90;;;;;;5091966;28;20032;-61
2022/11/18 04:17:35;;;;;;;4.85;1.98;;;9.00;99.90;;;;;;5088894;28;20030;-62
2022/11/18 04:20:00;;;;;;;9.40;2.10;;;9.00;99.90;;;;;;5113110;27;20032;-62
2022/11/18 04:22:26;;;;;;;4.90;2.25;;;9.00;99.90;;;;;;5091761;28;20099;-62
2022/11/18 04:24:51;;;;;;;8.07;1.83;;;9.00;99.90;;;;;;5070529;28;20027;-62
2022/11/18 04:27:17;;;;;;;4.78;2.45;;;9.00;99.90;;;;;;5089516;28;20469;-61
2022/11/18 04:29:42;;;;;;;4.53;2.10;;;9.00;99.90;;;;;;5088790;28;20024;-61
2022/11/18 04:32:08;;;;;;;6.45;3.13;;;9.00;99.90;;;;;;5091081;28;20036;-61
2022/11/18 04:34:33;;;;;;;6.13;2.22;;;9.00;99.90;;;;;;5092840;28;20031;-61
2022/11/18 04:36:59;;;;;;;4.43;1.80;;;9.10;99.90;;;;;;5094247;28;20642;-61
2022/11/18 04:39:24;;;;;;;5.65;2.10;;;9.00;99.90;;;;;;5088763;28;20081;-61
2022/11/18 04:41:56;;;;;;;8.23;2.53;;;9.10;99.90;;;;;;5092461;28;20032;-62
2022/11/18 04:44:27;;;;;;;4.22;2.10;;;9.10;99.90;;;;;;5088814;28;20047;-61
2022/11/18 04:46:54;;;;;;;8.13;2.47;;;9.10;99.90;;;;;;5091500;28;20024;-61
2022/11/18 04:49:20;;;;;;;6.07;2.45;;;9.10;99.90;;;;;;5090552;28;20024;-61
2022/11/18 04:51:46;;;;;;;8.05;2.45;;;9.10;99.90;;;;;;5091476;28;20023;-62
2022/11/18 04:54:13;;;;;;;5.00;2.00;;;9.10;99.90;;;;;;5088549;28;20103;-62
2022/11/18 04:56:39;;;;;;;5.25;1.90;;;9.10;99.90;;;;;;5090523;28;20024;-62
2022/11/18 04:59:05;;;;;;;6.00;1.90;;;9.20;99.90;;;;;;5088698;28;20020;-62
2022/11/18 05:01:31;;;;;;;6.63;2.28;;;9.20;99.90;;;;;;5070109;28;20024;-62
2022/11/18 05:04:00;;;;;;;3.45;1.77;;;9.10;99.90;;;;;;5088991;28;20114;-61
2022/11/18 05:06:26;;;;;;;8.15;2.35;;;9.20;99.90;;;;;;5094437;28;20027;-62
2022/11/18 05:08:51;;;;;;;3.78;2.08;;;9.10;99.90;;;;;;5088683;28;20372;-61
2022/11/18 05:14:01;;;;;;;8.00;2.30;;;9.10;99.90;;;;;;5094099;28;20097;-61
2022/11/18 05:16:27;;;;;;;7.65;2.70;;;9.10;99.90;;;;;;5075645;28;21644;-61
2022/11/18 05:18:52;;;;;;;5.55;2.50;;;9.10;99.90;;;;;;5088346;28;20032;-62
2022/11/18 05:21:18;;;;;;;4.90;2.25;;;9.10;99.90;;;;;;5073197;28;20024;-61
2022/11/18 05:23:43;;;;;;;7.43;2.70;;;9.00;99.90;;;;;;5088330;28;20496;-61
2022/11/18 05:26:10;;;;;;;7.88;2.50;;;9.00;99.90;;;;;;5093507;28;20028;-62
2022/11/18 05:28:36;;;;;;;5.55;2.25;;;9.00;99.90;;;;;;5105857;28;20031;-62
2022/11/18 05:31:06;;;;;;;6.75;2.50;;;9.00;99.90;;;;;;5107633;28;20047;-62
2022/11/18 05:33:32;;;;;;;6.63;1.98;;;9.00;99.90;;;;;;5093598;28;20110;-61
2022/11/18 05:36:02;;;;;;;6.63;2.15;;;8.90;99.90;;;;;;5091841;28;20107;-61
2022/11/18 05:38:28;;;;;;;5.18;2.60;;;8.90;99.90;;;;;;5091826;28;20036;-61
2022/11/18 05:40:53;;;;;;;6.55;2.58;;;8.90;99.90;;;;;;5100046;28;20028;-61
2022/11/18 05:43:18;;;;;;;5.60;2.55;;;8.90;99.90;;;;;;5098085;28;20077;-61
2022/11/18 05:45:44;;;;;;;7.35;2.80;;;8.90;99.90;;;;;;5104512;28;20380;-61
2022/11/18 05:48:09;;;;;;;5.38;2.63;;;8.90;99.90;;;;;;5094703;28;20024;-61
2022/11/18 05:50:37;;;;;;;6.05;2.53;;;8.80;99.90;;;;;;5096003;28;20051;-61
2022/11/18 05:53:03;;;;;;;5.72;2.60;;;8.80;99.90;;;;;;5099783;28;20023;-62
2022/11/18 05:55:36;;;;;;;5.38;2.78;;;8.80;99.90;;;;;;5095899;28;20404;-62
2022/11/18 05:58:01;;;;;;;4.75;2.78;;;8.80;99.90;;;;;;5096173;28;20391;-62
2022/11/18 06:00:28;;;;;;;9.00;2.53;;;8.70;99.90;;;;;;5100743;28;20496;-62
2022/11/18 06:02:55;;;;;;;8.30;2.60;;;8.70;99.90;;;;;;5101858;28;20021;-61
2022/11/18 06:05:23;;;;;;;7.97;2.60;;;8.70;99.90;;;;;;5099934;28;20028;-62
2022/11/18 06:07:48;;;;;;;7.70;2.70;;;8.60;99.90;;;;;;5100419;28;20024;-61
2022/11/18 06:10:21;;;;;;;6.55;2.42;;;8.60;99.90;;;;;;5100277;28;20047;-62
2022/11/18 06:12:49;;;;;;;5.63;2.50;;;8.60;99.90;;;;;;5080919;28;20113;-62
2022/11/18 06:15:20;;;;;;;4.80;2.28;;;8.50;99.90;;;;;;5098424;28;20385;-61
2022/11/18 06:17:51;;;;;;;7.85;2.85;;;8.50;99.90;;;;;;5084398;28;20025;-62
2022/11/18 06:20:20;;;;;;;8.73;2.70;;;8.40;99.90;;;;;;5098568;28;20028;-62
2022/11/18 06:22:48;;;;;;;8.05;3.25;;;8.40;99.90;;;;;;5082216;28;20457;-62
2022/11/18 06:25:14;;;;;;;4.80;2.80;;;8.40;99.90;;;;;;5109270;28;20100;-61
2022/11/18 06:27:40;;;;;;;6.60;2.97;;;8.30;99.90;;;;;;5111684;28;20131;-62
2022/11/18 06:30:06;;;;;;;5.88;2.90;;;8.30;99.90;;;;;;5108406;28;20477;-61
2022/11/18 06:32:32;;;;;;;5.75;2.88;;;8.30;99.90;;;;;;5094341;28;20135;-61
2022/11/18 06:34:57;;;;;;;5.18;2.65;;;8.30;99.90;;;;;;5094138;28;20107;-61
2022/11/18 06:37:23;;;;;;;6.00;2.47;;;8.20;99.90;;;;;;5094822;28;20023;-61
2022/11/18 06:39:48;;;;;;;6.13;2.90;;;8.20;99.90;;;;;;5097853;28;20395;-61
2022/11/18 06:43:37;;;;;;;9.18;2.88;;;8.20;99.90;;;;;;5107400;28;20043;-62
2022/11/18 06:45:00;;;;;;;8.25;3.38;;;8.20;99.90;;;;;;5110754;28;20042;-61
2022/11/18 06:47:26;;;;;;;6.30;3.22;;;8.10;99.90;;;;;;5114259;28;20018;-61
2022/11/18 06:49:52;;;;;;;6.47;2.80;;;8.10;99.90;;;;;;5113127;28;20016;-61
2022/11/18 06:52:17;;;;;;;7.22;2.80;;;8.10;99.90;;;;;;5113613;28;20116;-62
2022/11/18 06:54:43;;;;;;;8.95;2.92;;;8.10;99.90;;;;;;5128279;27;20019;-61
2022/11/18 06:57:08;;;;;;;5.65;2.85;;;8.00;99.90;;;;;;5113712;28;20019;-61
2022/11/18 06:59:34;;;;;;;8.43;3.58;;;8.00;99.90;;;;;;5113668;28;20034;-61
2022/11/18 07:01:59;;;;;;;8.68;3.22;;;8.00;99.90;;;;;;5129685;27;20408;-61
2022/11/18 07:04:25;;;;;;;5.85;3.10;;;7.90;99.90;;;;;;5128774;27;20057;-61
2022/11/18 07:06:50;;;;;;;9.48;3.22;;;7.90;99.90;;;;;;5114204;28;20012;-62
2022/11/18 07:09:16;;;;;;;7.57;3.60;;;7.90;99.90;;;;;;5113192;28;20038;-61
2022/11/18 07:11:42;;;;;;;5.80;2.70;;;7.90;99.90;;;;;;5114270;28;20030;-61
2022/11/18 07:14:08;;;;;;;7.63;2.83;;;7.90;99.90;;;;;;5113638;28;20502;-61
2022/11/18 07:16:38;;;;;;;7.68;3.75;;;7.80;99.90;;;;;;5102481;28;20485;-61
2022/11/18 07:19:12;;;;;;;7.22;3.33;;;7.80;99.90;;;;;;5099473;28;20024;-61
2022/11/18 07:21:38;;;;;;;10.00;3.90;;;7.80;99.90;;;;;;5112843;28;20028;-61
2022/11/18 07:24:06;;;;;;;7.78;3.47;;;7.80;99.90;;;;;;5093538;28;20032;-62
2022/11/18 07:26:32;;;;;;;8.35;4.70;;;7.80;99.90;;;;;;5093671;28;20034;-62
2022/11/18 07:28:57;;;;;;;6.10;3.40;;;7.80;99.90;;;;;;5109586;28;20027;-62
2022/11/18 07:31:23;;;;;;;8.77;3.67;;;7.90;99.90;;;;;;5112772;28;20557;-61
2022/11/18 07:33:52;;;;;;;8.85;3.97;;;7.90;99.90;;;;;;5094035;28;20046;-62
2022/11/18 07:36:23;;;;;;;4.43;3.22;;;7.80;99.90;;;;;;5093715;28;20024;-61
2022/11/18 07:38:49;;;;;;;7.45;3.30;;;7.80;99.90;;;;;;5094143;28;20511;-61
2022/11/18 07:41:19;;;;;;;7.30;3.17;;;7.90;99.90;;;;;;5106604;28;20481;-61
2022/11/18 07:43:46;;;;;;;8.80;3.40;;;7.90;99.90;;;;;;5101482;28;20103;-61
2022/11/18 07:46:16;;;;;;;7.57;3.47;;;7.90;99.90;;;;;;5093208;28;20477;-61
2022/11/18 07:48:43;;;;;;;7.45;3.33;;;8.00;99.90;;;;;;5093584;28;20024;-62
2022/11/18 07:51:09;;;;;;;6.78;3.30;;;8.00;99.90;;;;;;5094585;28;20464;-61
2022/11/18 07:53:35;;;;;;;8.35;3.83;;;8.00;99.90;;;;;;5113653;28;20043;-61
2022/11/18 07:56:02;;;;;;;7.53;3.92;;;8.00;99.90;;;;;;5113228;28;20068;-61
2022/11/18 07:58:27;;;;;;;7.32;3.88;;;8.00;99.90;;;;;;5113385;28;20035;-61
2022/11/18 08:00:53;;;;;;;9.70;4.38;;;8.00;99.90;;;;;;5112832;28;20039;-61
2022/11/18 08:03:18;;;;;;;7.60;3.55;;;8.00;99.90;;;;;;5079039;28;20024;-61
2022/11/18 08:05:44;;;;;;;8.05;3.75;;;8.00;99.90;;;;;;5093211;28;20178;-61
2022/11/18 08:08:10;;;;;;;12.80;4.07;;;8.10;99.90;;;;;;5092860;28;20062;-61
2022/11/18 08:10:36;;;;;;;7.95;3.50;;;8.10;99.90;;;;;;5075203;28;20020;-61
2022/11/18 08:13:01;;;;;;;8.25;4.00;;;8.10;99.90;;;;;;5092802;28;20385;-61
2022/11/18 08:15:27;;;;;;;9.50;3.72;;;8.10;99.90;;;;;;5092935;28;20024;-61
2022/11/18 08:17:53;;;;;;;8.38;4.20;;;8.10;99.90;;;;;;5098459;28;20059;-61
2022/11/18 08:20:18;;;;;;;8.27;3.80;;;8.10;99.90;;;;;;5099783;28;20028;-61
2022/11/18 08:22:44;;;;;;;9.77;4.40;;;8.10;99.90;;;;;;5092751;28;20093;-61
2022/11/18 08:25:09;;;;;;;9.27;3.80;;;8.10;99.90;;;;;;5093213;28;20028;-61
2022/11/18 08:27:35;;;;;;;6.53;4.43;;;8.10;99.90;;;;;;5092827;28;20021;-61
2022/11/18 08:30:00;;;;;;;8.68;4.18;;;8.10;99.90;;;;;;5092653;28;20481;-61
2022/11/18 08:32:27;;;;;;;7.35;4.38;;;8.20;99.90;;;;;;5092541;28;20047;-61
2022/11/18 08:34:52;;;;;;;7.68;4.15;;;8.10;99.90;;;;;;5094689;28;20032;-61
2022/11/18 08:37:18;;;;;;;8.00;4.22;;;8.20;99.90;;;;;;5103579;28;20081;-61
2022/11/18 08:39:43;;;;;;;8.55;3.95;;;8.20;99.90;;;;;;5105513;28;20117;-61
2022/11/18 08:42:09;;;;;;;6.45;3.63;;;8.20;99.90;;;;;;5112626;28;20133;-61
2022/11/18 08:44:35;;;;;;;10.63;5.63;;;8.20;99.90;;;;;;5098575;28;20017;-61
2022/11/18 08:47:01;;;;;;;8.45;3.95;;;8.20;99.90;;;;;;5074329;28;20017;-61
2022/11/18 08:49:27;;;;;;;8.02;4.22;;;8.30;99.90;;;;;;5092061;28;20035;-61
2022/11/18 08:51:53;;;;;;;6.45;4.70;;;8.30;99.90;;;;;;5107858;28;20014;-61
2022/11/18 08:54:19;;;;;;;7.70;3.83;;;8.30;99.90;;;;;;5105729;28;20030;-61
2022/11/18 08:56:44;;;;;;;8.70;3.88;;;8.40;99.90;;;;;;5102737;28;20624;-61
2022/11/18 08:59:10;;;;;;;8.70;3.97;;;8.40;99.90;;;;;;5102727;28;20077;-61
2022/11/18 09:01:36;;;;;;;8.25;4.22;;;8.50;99.90;;;;;;5098068;28;20111;-62
2022/11/18 09:04:02;;;;;;;6.10;3.97;;;8.60;99.90;;;;;;5108102;28;20024;-61
2022/11/18 09:06:28;;;;;;;8.68;4.65;;;8.60;99.90;;;;;;5076380;28;20070;-61
2022/11/18 09:08:54;;;;;;;4.70;3.75;;;8.70;99.90;;;;;;5094299;28;20020;-62
2022/11/18 09:11:24;;;;;;;8.57;4.15;;;8.80;99.90;;;;;;5100844;28;20023;-62
2022/11/18 09:13:55;;;;;;;5.78;3.83;;;8.90;99.90;;;;;;5111970;28;20115;-62
2022/11/18 09:16:22;;;;;;;7.38;3.85;;;9.00;99.90;;;;;;5111388;28;20055;-62
2022/11/18 09:18:49;;;;;;;8.77;3.80;;;9.10;99.90;;;;;;5093239;28;20024;-62
2022/11/18 09:21:15;;;;;;;5.38;3.42;;;9.10;99.90;;;;;;5090261;28;20021;-62
2022/11/18 09:23:40;;;;;;;7.20;3.60;;;9.20;99.90;;;;;;5089592;28;20035;-62
2022/11/18 09:26:08;;;;;;;5.90;3.70;;;9.30;99.90;;;;;;5091173;28;20024;-62
2022/11/18 09:28:34;;;;;;;7.82;3.33;;;9.40;99.90;;;;;;5092754;28;20035;-62
2022/11/18 09:31:08;;;;;;;5.85;2.97;;;9.40;99.90;;;;;;5097111;28;20044;-62
2022/11/18 09:33:34;;;;;;;6.95;4.07;;;9.50;99.90;;;;;;5078466;28;20024;-62
2022/11/18 09:36:00;;;;;;;5.55;2.90;;;9.60;99.90;;;;;;5111832;28;20024;-61
2022/11/18 09:38:27;;;;;;;8.25;3.63;;;9.60;99.90;;;;;;5113212;28;20358;-62
2022/11/18 09:41:26;;;;;;;6.05;3.58;;;9.70;99.90;;;;;;5112420;28;20159;-61
2022/11/18 09:43:59;;;;;;;4.50;2.40;;;9.80;99.90;;;;;;5043802;28;20039;-62
2022/11/18 09:46:48;;;;;;;5.45;2.70;;;10.00;99.90;;;;;;5106125;28;20039;-62
2022/11/18 09:49:25;;;;;;;5.50;2.90;;;10.30;99.90;;;;;;5103016;28;20031;-62
2022/11/18 09:51:51;;;;;;;9.70;3.47;;;10.30;99.90;;;;;;5100542;28;20036;-62
2022/11/18 09:54:23;;;;;;;4.82;3.17;;;10.50;99.90;;;;;;5100134;28;20044;-62
2022/11/18 09:56:51;;;;;;;6.63;2.70;;;10.60;99.90;;;;;;5095512;27;20024;-62
2022/11/18 09:59:20;;;;;;;5.57;2.47;;;10.70;99.90;;;;;;5095486;28;20377;-62
2022/11/18 10:01:47;;;;;;;8.95;2.72;;;11.10;99.90;;;;;;5098515;28;20526;-62
2022/11/18 10:04:18;;;;;;;5.07;2.20;;;11.40;99.90;;;;;;5110781;28;20027;-62
2022/11/18 10:06:45;;;;;;;4.50;2.55;;;12.00;99.90;;;;;;5095730;28;20012;-62
2022/11/18 10:09:29;;;;;;;8.20;2.67;;;12.60;99.90;;;;;;5095809;28;20488;-62
2022/11/18 10:12:14;;;;;;;7.53;3.13;;;13.00;99.90;;;;;;5096041;28;20603;-62
2022/11/18 10:15:01;;;;;;;4.82;2.25;;;13.20;99.90;;;;;;5095803;28;20016;-62
2022/11/18 10:17:45;;;;;;;8.55;1.98;;;13.10;99.90;;;;;;5095950;28;20020;-62
2022/11/18 10:20:51;;;;;;;5.40;2.67;;;13.10;99.90;;;;;;5097857;28;20024;-62
2022/11/18 10:23:27;;;;;;;4.68;2.03;;;13.20;99.90;;;;;;5101286;28;20074;-62
2022/11/18 10:25:53;;;;;;;5.13;1.92;;;13.30;99.90;;;;;;5102810;28;20140;-62
2022/11/18 10:28:28;;;;;;;8.25;2.20;;;13.60;99.90;;;;;;5110687;28;20435;-62
2022/11/18 10:31:06;;;;;;;5.53;1.83;;;14.20;99.40;;;;;;5103514;28;20517;-62
2022/11/18 10:33:32;;;;;;;7.53;1.90;;;14.70;97.90;;;;;;5107188;28;20028;-62
2022/11/18 10:36:26;;;;;;;5.32;1.50;;;15.00;96.40;;;;;;5112689;28;20028;-62
2022/11/18 10:39:07;;;;;;;5.78;1.77;;;15.20;95.20;;;;;;5100835;28;20023;-62
2022/11/18 10:41:54;;;;;;;4.65;1.85;;;15.40;95.30;;;;;;5109565;28;20118;-62
2022/11/18 10:44:30;;;;;;;2.90;1.25;;;15.70;94.30;;;;;;5093717;28;20035;-62
2022/11/18 10:47:13;;;;;;;4.55;1.58;;;16.20;94.10;;;;;;5094553;27;20469;-63
2022/11/18 10:49:39;;;;;;;6.53;2.35;;;16.10;92.80;;;;;;5094818;28;20026;-62
2022/11/18 10:52:13;;;;;;;5.60;2.53;;;15.70;91.70;;;;;;5094885;28;20103;-62
2022/11/18 10:54:39;;;;;;;6.20;2.20;;;15.30;92.40;;;;;;5093740;28;20055;-62
2022/11/18 10:57:20;;;;;;;8.52;2.45;;;15.10;92.70;;;;;;5111123;28;20043;-62
2022/11/18 10:59:54;;;;;;;5.05;1.75;;;14.60;92.50;;;;;;5096664;28;20016;-62
2022/11/18 11:02:30;;;;;;;7.28;2.20;;;14.10;93.50;;;;;;5092422;28;20020;-62
2022/11/18 11:05:15;;;;;;;6.47;2.17;;;13.80;94.40;;;;;;5109846;28;20008;-62
2022/11/18 11:07:40;;;;;;;5.93;2.10;;;13.50;94.90;;;;;;5108427;28;20119;-62
2022/11/18 11:10:09;;;;;;;6.95;2.10;;;13.30;95.70;;;;;;5111445;28;20504;-62
2022/11/18 11:12:37;;;;;;;6.97;2.08;;;13.30;96.20;;;;;;5108230;28;20093;-62
2022/11/18 11:15:09;;;;;;;6.22;2.30;;;13.30;96.60;;;;;;5111566;28;20028;-62
2022/11/18 11:18:40;;;;;;;3.83;1.63;;;13.40;96.90;;;;;;5109139;28;20076;-62
2022/11/18 11:20:41;;;;;;;5.43;1.80;;;13.60;96.20;;;;;;5113356;28;20027;-62
2022/11/18 11:23:11;;;;;;;8.18;1.90;;;13.80;95.90;;;;;;5111661;28;20023;-62
2022/11/18 11:25:45;;;;;;;7.38;2.10;;;13.90;95.10;;;;;;5109359;28;20027;-62
2022/11/18 11:28:43;;;;;;;4.88;2.22;;;13.90;95.00;;;;;;5110231;28;20106;-62
2022/11/18 11:31:33;;;;;;;3.83;2.03;;;13.80;95.20;;;;;;5104195;28;20047;-62
2022/11/18 11:34:35;;;;;;;7.32;2.13;;;13.70;95.30;;;;;;5101401;28;20035;-62
2022/11/18 11:37:21;;;;;;;4.95;2.05;;;13.40;95.40;;;;;;5090715;28;20051;-62
2022/11/18 11:40:19;;;;;;;5.45;1.80;;;13.10;96.30;;;;;;5108631;28;20044;-62
2022/11/18 11:43:09;;;;;;;7.65;2.13;;;12.90;96.60;;;;;;5083567;28;20366;-62
2022/11/18 11:45:58;;;;;;;6.25;2.13;;;13.00;97.40;;;;;;5093568;28;20031;-62
2022/11/18 11:48:51;;;;;;;5.80;1.67;;;13.10;97.00;;;;;;5096229;28;20092;-62
2022/11/18 11:51:35;;;;;;;5.75;1.70;;;13.10;96.80;;;;;;5090374;28;20422;-62
2022/11/18 11:54:35;;;;;;;5.28;2.10;;;13.20;96.70;;;;;;5111114;28;20030;-62
2022/11/18 11:57:12;;;;;;;6.35;2.53;;;13.00;96.40;;;;;;5101030;28;20027;-62
2022/11/18 11:59:56;;;;;;;5.55;1.70;;;12.90;96.90;;;;;;5106148;28;20050;-62
2022/11/18 12:02:45;;;;;;;5.65;1.83;;;13.20;97.10;;;;;;5074937;28;20496;-62
2022/11/18 12:05:27;;;;;;;6.88;1.92;;;13.60;96.00;;;;;;5093375;28;20028;-62
2022/11/18 12:07:56;;;;;;;6.82;1.58;;;13.60;95.90;;;;;;5093228;28;20093;-62
2022/11/18 12:10:52;;;;;;;5.63;1.80;;;13.50;96.10;;;;;;5092817;28;20078;-62
2022/11/18 12:13:52;;;;;;;7.03;2.13;;;13.40;96.30;;;;;;5092993;28;20040;-62
2022/11/18 12:16:31;;;;;;;;;;;13.20;96.30;;;;;;5075382;28;20024;-62
2022/11/18 12:19:01;;;;;;;5.20;1.55;;;12.90;96.70;;;;;;5092466;28;20273;-62
2022/11/18 12:21:45;;;;;;;5.53;2.03;;;12.70;97.50;;;;;;5104371;28;20067;-62
2022/11/18 12:24:32;;;;;;;6.10;1.83;;;12.60;97.60;;;;;;5100247;28;20023;-62
2022/11/18 12:26:58;;;;;;;8.15;2.85;;;12.50;97.90;;;;;;5094502;28;20016;-62
2022/11/18 12:29:27;;;;;;;4.43;2.13;;;12.40;98.40;;;;;;5093193;28;20016;-62
2022/11/18 12:31:58;;;;;;;6.63;1.65;;;12.30;98.60;;;;;;5097134;28;20489;-62
2022/11/18 12:34:42;;;;;;;6.30;1.70;;;12.20;98.90;;;;;;5100368;28;20040;-62
2022/11/18 12:37:24;;;;;;;5.47;2.03;;;12.20;99.00;;;;;;5092928;28;20149;-62
2022/11/18 12:39:58;;;;;;;5.38;1.63;;;12.20;99.10;;;;;;5093119;28;20186;-62
2022/11/18 12:45:42;;;;;;;3.00;1.10;;;12.40;99.40;;;;;;5092754;28;20491;-62
2022/11/18 12:48:23;;;;;;;3.70;1.13;;;13.70;99.30;;;;;;5105527;28;20024;-63
2022/11/18 12:50:53;;;;;;;4.60;1.38;;;14.20;97.40;;;;;;5104712;28;20019;-62
2022/11/18 12:53:39;;;;;;;7.25;1.98;;;14.20;96.30;;;;;;5112540;28;20019;-62
2022/11/18 12:56:16;;;;;;;3.95;1.55;;;13.80;95.70;;;;;;5096741;28;20028;-62
2022/11/18 12:58:50;;;;;;;4.50;1.90;;;13.40;95.90;;;;;;5092036;28;20032;-63
2022/11/18 13:01:19;;;;;;;8.38;2.15;;;13.00;96.30;;;;;;5099210;28;20062;-62
2022/11/18 13:03:44;;;;;;;6.15;2.13;;;12.80;96.80;;;;;;5100405;28;20035;-62
2022/11/18 13:06:25;;;;;;;7.25;1.88;;;12.70;97.30;;;;;;5090289;28;20361;-62
2022/11/18 13:08:58;;;;;;;6.18;1.75;;;12.60;97.70;;;;;;5100548;28;20556;-62
2022/11/18 13:11:44;;;;;;;6.50;1.73;;;12.50;98.00;;;;;;5075199;28;20038;-62
2022/11/18 13:17:53;;;;;;;9.65;2.85;;;12.80;98.90;;;;;;5093676;28;20101;-62
2022/11/18 13:20:26;;;;;;;5.20;1.80;;;13.10;98.10;;;;;;5107114;28;20107;-62
2022/11/18 13:25:38;;;;;;;4.22;2.17;;;13.10;97.80;;;;;;5093496;28;20058;-62
2022/11/18 13:28:17;;;;;;;4.35;1.65;;;12.90;98.10;;;;;;5092937;28;20024;-62
2022/11/18 13:30:54;;;;;;;5.72;1.70;;;12.80;98.10;;;;;;5094617;28;20044;-63
2022/11/18 13:33:20;;;;;;;4.50;2.03;;;12.70;98.60;;;;;;5074121;28;20423;-63
2022/11/18 13:35:45;;;;;;;4.85;2.05;;;12.60;98.40;;;;;;5102168;28;20032;-62